sensor_id;sensor_type;location;lat;lon;timestamp;P1;durP1;ratioP1;P2;durP2;ratioP2
32611;SDS011;19030;49.478;8.986;2022-10-18T00:00:46;13.02;;;5.97;;
32611;SDS011;19030;49.478;8.986;2022-10-18T00:02:47;14.77;;;5.55;;
32611;SDS011;19030;49.478;8.986;2022-10-18T00:04:48;12.30;;;5.90;;
32611;SDS011;19030;49.478;8.986;2022-10-18T00:06:48;11.80;;;5.80;;
32611;SDS011;19030;49.478;8.986;2022-10-18T00:08:49;14.05;;;5.38;;
32611;SDS011;19030;49.478;8.986;2022-10-18T00:10:50;16.67;;;5.55;;
32611;SDS011;19030;49.478;8.986;2022-10-18T00:12:50;11.57;;;6.13;;
32611;SDS011;19030;49.478;8.986;2022-10-18T00:14:52;12.93;;;6.28;;
32611;SDS011;19030;49.478;8.986;2022-10-18T00:16:52;16.75;;;5.72;;
32611;SDS011;19030;49.478;8.986;2022-10-18T00:18:53;15.50;;;6.63;;
32611;SDS011;19030;49.478;8.986;2022-10-18T00:21:00;11.20;;;5.90;;
32611;SDS011;19030;49.478;8.986;2022-10-18T00:23:04;14.48;;;5.57;;
32611;SDS011;19030;49.478;8.986;2022-10-18T00:25:05;20.40;;;6.35;;
32611;SDS011;19030;49.478;8.986;2022-10-18T00:27:07;13.68;;;6.00;;
32611;SDS011;19030;49.478;8.986;2022-10-18T00:29:09;16.92;;;6.22;;
32611;SDS011;19030;49.478;8.986;2022-10-18T00:31:19;16.73;;;6.03;;
32611;SDS011;19030;49.478;8.986;2022-10-18T00:33:20;17.00;;;6.70;;
32611;SDS011;19030;49.478;8.986;2022-10-18T00:35:21;14.43;;;5.40;;
32611;SDS011;19030;49.478;8.986;2022-10-18T00:37:22;14.23;;;5.97;;
32611;SDS011;19030;49.478;8.986;2022-10-18T00:39:22;10.57;;;5.57;;
32611;SDS011;19030;49.478;8.986;2022-10-18T00:41:29;13.90;;;6.00;;
32611;SDS011;19030;49.478;8.986;2022-10-18T00:43:31;19.13;;;6.13;;
32611;SDS011;19030;49.478;8.986;2022-10-18T00:45:32;10.10;;;5.72;;
32611;SDS011;19030;49.478;8.986;2022-10-18T00:47:33;11.20;;;5.70;;
32611;SDS011;19030;49.478;8.986;2022-10-18T00:49:35;9.80;;;5.63;;
32611;SDS011;19030;49.478;8.986;2022-10-18T00:51:41;11.88;;;5.93;;
32611;SDS011;19030;49.478;8.986;2022-10-18T00:53:43;18.35;;;5.47;;
32611;SDS011;19030;49.478;8.986;2022-10-18T00:55:45;14.23;;;6.03;;
32611;SDS011;19030;49.478;8.986;2022-10-18T00:57:46;11.95;;;5.88;;
32611;SDS011;19030;49.478;8.986;2022-10-18T00:59:47;13.23;;;5.82;;
32611;SDS011;19030;49.478;8.986;2022-10-18T02:01:10;10.60;;;5.75;;
32611;SDS011;19030;49.478;8.986;2022-10-18T02:03:24;18.75;;;6.00;;
32611;SDS011;19030;49.478;8.986;2022-10-18T02:08:07;14.30;;;5.47;;
32611;SDS011;19030;49.478;8.986;2022-10-18T02:10:19;11.77;;;5.40;;
32611;SDS011;19030;49.478;8.986;2022-10-18T02:12:48;11.73;;;5.22;;
32611;SDS011;19030;49.478;8.986;2022-10-18T02:14:50;10.85;;;5.30;;
32611;SDS011;19030;49.478;8.986;2022-10-18T02:16:55;13.10;;;5.30;;
32611;SDS011;19030;49.478;8.986;2022-10-18T02:19:09;11.02;;;6.05;;
32611;SDS011;19030;49.478;8.986;2022-10-18T02:21:16;11.70;;;5.72;;
32611;SDS011;19030;49.478;8.986;2022-10-18T02:23:20;10.25;;;5.80;;
32611;SDS011;19030;49.478;8.986;2022-10-18T02:25:24;11.75;;;6.03;;
32611;SDS011;19030;49.478;8.986;2022-10-18T02:27:27;17.08;;;5.50;;
32611;SDS011;19030;49.478;8.986;2022-10-18T02:29:28;13.23;;;6.40;;
32611;SDS011;19030;49.478;8.986;2022-10-18T02:31:43;13.70;;;5.60;;
32611;SDS011;19030;49.478;8.986;2022-10-18T02:33:45;16.65;;;5.40;;
32611;SDS011;19030;49.478;8.986;2022-10-18T02:35:56;11.63;;;5.70;;
32611;SDS011;19030;49.478;8.986;2022-10-18T02:38:02;22.13;;;7.07;;
32611;SDS011;19030;49.478;8.986;2022-10-18T02:40:05;9.57;;;5.70;;
32611;SDS011;19030;49.478;8.986;2022-10-18T02:42:08;12.48;;;5.60;;
32611;SDS011;19030;49.478;8.986;2022-10-18T02:44:10;17.55;;;5.63;;
32611;SDS011;19030;49.478;8.986;2022-10-18T02:46:10;12.25;;;5.65;;
32611;SDS011;19030;49.478;8.986;2022-10-18T02:48:11;9.75;;;5.55;;
32611;SDS011;19030;49.478;8.986;2022-10-18T02:50:11;15.40;;;5.80;;
32611;SDS011;19030;49.478;8.986;2022-10-18T02:52:12;8.73;;;5.50;;
32611;SDS011;19030;49.478;8.986;2022-10-18T02:54:13;11.32;;;5.35;;
32611;SDS011;19030;49.478;8.986;2022-10-18T02:56:14;14.32;;;5.68;;
32611;SDS011;19030;49.478;8.986;2022-10-18T02:58:14;10.15;;;5.10;;
32611;SDS011;19030;49.478;8.986;2022-10-18T03:00:15;15.43;;;5.60;;
32611;SDS011;19030;49.478;8.986;2022-10-18T03:02:15;9.60;;;5.78;;
32611;SDS011;19030;49.478;8.986;2022-10-18T03:04:16;14.25;;;5.78;;
32611;SDS011;19030;49.478;8.986;2022-10-18T03:08:18;16.30;;;5.57;;
32611;SDS011;19030;49.478;8.986;2022-10-18T03:10:19;17.83;;;5.60;;
32611;SDS011;19030;49.478;8.986;2022-10-18T03:12:20;9.52;;;5.75;;
32611;SDS011;19030;49.478;8.986;2022-10-18T03:14:20;13.70;;;5.47;;
32611;SDS011;19030;49.478;8.986;2022-10-18T03:16:21;9.70;;;5.35;;
32611;SDS011;19030;49.478;8.986;2022-10-18T03:18:21;10.35;;;5.40;;
32611;SDS011;19030;49.478;8.986;2022-10-18T03:20:22;13.43;;;5.10;;
32611;SDS011;19030;49.478;8.986;2022-10-18T03:22:22;8.13;;;5.38;;
32611;SDS011;19030;49.478;8.986;2022-10-18T03:24:24;14.20;;;5.95;;
32611;SDS011;19030;49.478;8.986;2022-10-18T03:26:25;12.80;;;5.70;;
32611;SDS011;19030;49.478;8.986;2022-10-18T03:28:25;13.13;;;5.40;;
32611;SDS011;19030;49.478;8.986;2022-10-18T03:30:26;17.13;;;6.38;;
32611;SDS011;19030;49.478;8.986;2022-10-18T03:32:27;10.35;;;5.43;;
32611;SDS011;19030;49.478;8.986;2022-10-18T03:34:27;11.90;;;5.70;;
32611;SDS011;19030;49.478;8.986;2022-10-18T03:36:28;11.05;;;5.60;;
32611;SDS011;19030;49.478;8.986;2022-10-18T03:38:28;14.52;;;6.20;;
32611;SDS011;19030;49.478;8.986;2022-10-18T03:40:29;9.48;;;5.75;;
32611;SDS011;19030;49.478;8.986;2022-10-18T03:42:30;16.48;;;6.03;;
32611;SDS011;19030;49.478;8.986;2022-10-18T03:44:30;11.85;;;6.40;;
32611;SDS011;19030;49.478;8.986;2022-10-18T03:46:31;18.33;;;6.28;;
32611;SDS011;19030;49.478;8.986;2022-10-18T03:48:31;19.15;;;6.22;;
32611;SDS011;19030;49.478;8.986;2022-10-18T03:50:32;12.02;;;5.82;;
32611;SDS011;19030;49.478;8.986;2022-10-18T03:52:33;8.98;;;5.57;;
32611;SDS011;19030;49.478;8.986;2022-10-18T03:54:33;8.98;;;4.55;;
32611;SDS011;19030;49.478;8.986;2022-10-18T03:56:34;12.23;;;5.50;;
32611;SDS011;19030;49.478;8.986;2022-10-18T03:58:34;11.45;;;5.25;;
32611;SDS011;19030;49.478;8.986;2022-10-18T04:00:35;11.48;;;5.05;;
32611;SDS011;19030;49.478;8.986;2022-10-18T04:02:36;9.20;;;5.50;;
32611;SDS011;19030;49.478;8.986;2022-10-18T04:04:36;11.70;;;5.88;;
32611;SDS011;19030;49.478;8.986;2022-10-18T04:06:37;13.02;;;5.30;;
32611;SDS011;19030;49.478;8.986;2022-10-18T04:08:37;11.38;;;5.70;;
32611;SDS011;19030;49.478;8.986;2022-10-18T04:10:38;11.63;;;5.35;;
32611;SDS011;19030;49.478;8.986;2022-10-18T04:12:38;13.10;;;6.22;;
32611;SDS011;19030;49.478;8.986;2022-10-18T04:14:39;10.13;;;5.50;;
32611;SDS011;19030;49.478;8.986;2022-10-18T04:16:40;10.38;;;5.20;;
32611;SDS011;19030;49.478;8.986;2022-10-18T04:18:40;13.00;;;5.50;;
32611;SDS011;19030;49.478;8.986;2022-10-18T04:20:41;18.92;;;7.82;;
32611;SDS011;19030;49.478;8.986;2022-10-18T04:22:41;11.90;;;5.82;;
32611;SDS011;19030;49.478;8.986;2022-10-18T04:24:42;12.98;;;6.53;;
32611;SDS011;19030;49.478;8.986;2022-10-18T04:26:43;9.07;;;5.65;;
32611;SDS011;19030;49.478;8.986;2022-10-18T04:28:43;9.38;;;5.55;;
32611;SDS011;19030;49.478;8.986;2022-10-18T04:30:50;11.70;;;5.55;;
32611;SDS011;19030;49.478;8.986;2022-10-18T04:32:51;16.70;;;6.10;;
32611;SDS011;19030;49.478;8.986;2022-10-18T04:34:52;9.68;;;5.72;;
32611;SDS011;19030;49.478;8.986;2022-10-18T04:36:52;10.93;;;6.00;;
32611;SDS011;19030;49.478;8.986;2022-10-18T04:38:53;9.85;;;5.40;;
32611;SDS011;19030;49.478;8.986;2022-10-18T04:40:54;11.07;;;5.93;;
32611;SDS011;19030;49.478;8.986;2022-10-18T04:42:54;17.77;;;7.32;;
32611;SDS011;19030;49.478;8.986;2022-10-18T04:44:55;11.30;;;5.45;;
32611;SDS011;19030;49.478;8.986;2022-10-18T04:47:05;15.45;;;5.72;;
32611;SDS011;19030;49.478;8.986;2022-10-18T04:49:05;9.48;;;5.40;;
32611;SDS011;19030;49.478;8.986;2022-10-18T04:51:06;10.70;;;5.80;;
32611;SDS011;19030;49.478;8.986;2022-10-18T04:53:06;11.13;;;5.90;;
32611;SDS011;19030;49.478;8.986;2022-10-18T04:55:07;12.07;;;5.75;;
32611;SDS011;19030;49.478;8.986;2022-10-18T04:57:08;11.82;;;5.82;;
32611;SDS011;19030;49.478;8.986;2022-10-18T04:59:08;12.90;;;6.22;;
32611;SDS011;19030;49.478;8.986;2022-10-18T05:01:09;14.82;;;5.97;;
32611;SDS011;19030;49.478;8.986;2022-10-18T05:03:10;7.93;;;5.10;;
32611;SDS011;19030;49.478;8.986;2022-10-18T05:05:12;14.55;;;6.72;;
32611;SDS011;19030;49.478;8.986;2022-10-18T05:07:12;9.73;;;5.55;;
32611;SDS011;19030;49.478;8.986;2022-10-18T05:09:13;12.65;;;6.20;;
32611;SDS011;19030;49.478;8.986;2022-10-18T05:11:14;21.67;;;13.88;;
32611;SDS011;19030;49.478;8.986;2022-10-18T05:13:15;37.13;;;22.27;;
32611;SDS011;19030;49.478;8.986;2022-10-18T05:15:16;23.75;;;11.63;;
32611;SDS011;19030;49.478;8.986;2022-10-18T05:17:16;12.95;;;8.43;;
32611;SDS011;19030;49.478;8.986;2022-10-18T05:19:17;13.32;;;6.70;;
32611;SDS011;19030;49.478;8.986;2022-10-18T05:21:17;17.65;;;6.65;;
32611;SDS011;19030;49.478;8.986;2022-10-18T05:23:18;11.63;;;6.45;;
32611;SDS011;19030;49.478;8.986;2022-10-18T05:25:18;11.95;;;6.60;;
32611;SDS011;19030;49.478;8.986;2022-10-18T05:27:19;12.57;;;6.15;;
32611;SDS011;19030;49.478;8.986;2022-10-18T05:29:20;14.30;;;6.00;;
32611;SDS011;19030;49.478;8.986;2022-10-18T05:31:20;11.45;;;6.13;;
32611;SDS011;19030;49.478;8.986;2022-10-18T05:33:21;12.57;;;6.47;;
32611;SDS011;19030;49.478;8.986;2022-10-18T05:35:21;9.95;;;6.25;;
32611;SDS011;19030;49.478;8.986;2022-10-18T05:37:22;11.95;;;6.07;;
32611;SDS011;19030;49.478;8.986;2022-10-18T05:39:22;12.98;;;6.18;;
32611;SDS011;19030;49.478;8.986;2022-10-18T05:41:23;11.90;;;6.13;;
32611;SDS011;19030;49.478;8.986;2022-10-18T05:43:27;16.35;;;5.78;;
32611;SDS011;19030;49.478;8.986;2022-10-18T05:45:27;16.27;;;6.18;;
32611;SDS011;19030;49.478;8.986;2022-10-18T05:47:28;13.77;;;6.32;;
32611;SDS011;19030;49.478;8.986;2022-10-18T05:49:29;13.15;;;5.93;;
32611;SDS011;19030;49.478;8.986;2022-10-18T05:51:29;17.60;;;6.05;;
32611;SDS011;19030;49.478;8.986;2022-10-18T05:53:30;10.82;;;5.97;;
32611;SDS011;19030;49.478;8.986;2022-10-18T05:55:30;15.13;;;5.95;;
32611;SDS011;19030;49.478;8.986;2022-10-18T05:57:31;15.45;;;6.05;;
32611;SDS011;19030;49.478;8.986;2022-10-18T05:59:31;12.25;;;6.13;;
32611;SDS011;19030;49.478;8.986;2022-10-18T06:01:32;14.85;;;5.97;;
32611;SDS011;19030;49.478;8.986;2022-10-18T06:03:33;11.93;;;5.90;;
32611;SDS011;19030;49.478;8.986;2022-10-18T06:05:33;14.35;;;6.13;;
32611;SDS011;19030;49.478;8.986;2022-10-18T06:07:34;13.18;;;6.60;;
32611;SDS011;19030;49.478;8.986;2022-10-18T06:09:35;10.43;;;6.75;;
32611;SDS011;19030;49.478;8.986;2022-10-18T06:11:36;11.55;;;6.50;;
32611;SDS011;19030;49.478;8.986;2022-10-18T06:13:43;15.35;;;6.88;;
32611;SDS011;19030;49.478;8.986;2022-10-18T06:15:46;14.85;;;6.72;;
32611;SDS011;19030;49.478;8.986;2022-10-18T06:17:46;12.82;;;6.75;;
32611;SDS011;19030;49.478;8.986;2022-10-18T06:19:47;15.90;;;6.57;;
32611;SDS011;19030;49.478;8.986;2022-10-18T06:21:48;13.98;;;7.35;;
32611;SDS011;19030;49.478;8.986;2022-10-18T06:23:49;14.68;;;6.88;;
32611;SDS011;19030;49.478;8.986;2022-10-18T06:25:50;12.20;;;6.53;;
32611;SDS011;19030;49.478;8.986;2022-10-18T06:27:51;15.10;;;6.82;;
32611;SDS011;19030;49.478;8.986;2022-10-18T06:29:52;12.63;;;6.25;;
32611;SDS011;19030;49.478;8.986;2022-10-18T06:31:52;19.52;;;6.43;;
32611;SDS011;19030;49.478;8.986;2022-10-18T06:33:54;15.45;;;6.40;;
32611;SDS011;19030;49.478;8.986;2022-10-18T06:35:57;13.02;;;6.90;;
32611;SDS011;19030;49.478;8.986;2022-10-18T06:37:59;14.98;;;6.60;;
32611;SDS011;19030;49.478;8.986;2022-10-18T06:40:00;12.13;;;5.88;;
32611;SDS011;19030;49.478;8.986;2022-10-18T06:42:00;17.23;;;6.45;;
32611;SDS011;19030;49.478;8.986;2022-10-18T06:44:05;17.02;;;6.10;;
32611;SDS011;19030;49.478;8.986;2022-10-18T06:46:12;15.68;;;5.63;;
32611;SDS011;19030;49.478;8.986;2022-10-18T06:48:13;15.43;;;6.32;;
32611;SDS011;19030;49.478;8.986;2022-10-18T06:50:13;11.85;;;6.15;;
32611;SDS011;19030;49.478;8.986;2022-10-18T06:52:17;14.10;;;5.70;;
32611;SDS011;19030;49.478;8.986;2022-10-18T06:54:19;16.20;;;7.30;;
32611;SDS011;19030;49.478;8.986;2022-10-18T06:56:20;11.80;;;6.28;;
32611;SDS011;19030;49.478;8.986;2022-10-18T06:58:20;20.02;;;6.75;;
32611;SDS011;19030;49.478;8.986;2022-10-18T07:00:21;15.13;;;6.10;;
32611;SDS011;19030;49.478;8.986;2022-10-18T07:02:22;11.13;;;5.82;;
32611;SDS011;19030;49.478;8.986;2022-10-18T07:04:22;34.45;;;7.65;;
32611;SDS011;19030;49.478;8.986;2022-10-18T07:06:23;33.50;;;6.70;;
32611;SDS011;19030;49.478;8.986;2022-10-18T07:08:24;11.93;;;6.40;;
32611;SDS011;19030;49.478;8.986;2022-10-18T07:10:24;12.85;;;5.80;;
32611;SDS011;19030;49.478;8.986;2022-10-18T07:12:25;15.25;;;5.80;;
32611;SDS011;19030;49.478;8.986;2022-10-18T07:14:25;9.70;;;5.75;;
32611;SDS011;19030;49.478;8.986;2022-10-18T07:16:26;11.68;;;5.57;;
32611;SDS011;19030;49.478;8.986;2022-10-18T07:18:27;12.52;;;5.95;;
32611;SDS011;19030;49.478;8.986;2022-10-18T07:20:27;18.40;;;5.97;;
32611;SDS011;19030;49.478;8.986;2022-10-18T07:22:28;15.20;;;6.85;;
32611;SDS011;19030;49.478;8.986;2022-10-18T07:24:29;12.13;;;5.78;;
32611;SDS011;19030;49.478;8.986;2022-10-18T07:26:30;14.90;;;8.35;;
32611;SDS011;19030;49.478;8.986;2022-10-18T07:28:32;13.57;;;6.30;;
32611;SDS011;19030;49.478;8.986;2022-10-18T07:30:33;13.82;;;5.78;;
32611;SDS011;19030;49.478;8.986;2022-10-18T07:32:34;15.30;;;6.35;;
32611;SDS011;19030;49.478;8.986;2022-10-18T07:34:35;17.92;;;6.18;;
32611;SDS011;19030;49.478;8.986;2022-10-18T07:36:36;15.60;;;5.57;;
32611;SDS011;19030;49.478;8.986;2022-10-18T07:38:36;10.27;;;6.18;;
32611;SDS011;19030;49.478;8.986;2022-10-18T07:40:37;14.98;;;6.05;;
32611;SDS011;19030;49.478;8.986;2022-10-18T07:42:37;15.82;;;6.00;;
32611;SDS011;19030;49.478;8.986;2022-10-18T07:44:38;16.25;;;5.75;;
32611;SDS011;19030;49.478;8.986;2022-10-18T07:46:39;9.35;;;5.63;;
32611;SDS011;19030;49.478;8.986;2022-10-18T07:48:39;14.43;;;5.80;;
32611;SDS011;19030;49.478;8.986;2022-10-18T07:50:40;9.40;;;5.30;;
32611;SDS011;19030;49.478;8.986;2022-10-18T07:52:41;15.10;;;4.75;;
32611;SDS011;19030;49.478;8.986;2022-10-18T07:54:41;14.07;;;5.45;;
32611;SDS011;19030;49.478;8.986;2022-10-18T07:56:42;12.23;;;5.32;;
32611;SDS011;19030;49.478;8.986;2022-10-18T07:58:43;11.55;;;5.80;;
32611;SDS011;19030;49.478;8.986;2022-10-18T08:00:44;22.13;;;11.82;;
32611;SDS011;19030;49.478;8.986;2022-10-18T08:02:44;21.73;;;9.38;;
32611;SDS011;19030;49.478;8.986;2022-10-18T08:04:45;17.52;;;6.45;;
32611;SDS011;19030;49.478;8.986;2022-10-18T08:06:45;13.38;;;6.32;;
32611;SDS011;19030;49.478;8.986;2022-10-18T08:08:46;16.15;;;6.45;;
32611;SDS011;19030;49.478;8.986;2022-10-18T08:10:48;16.80;;;6.15;;
32611;SDS011;19030;49.478;8.986;2022-10-18T08:12:49;11.20;;;6.10;;
32611;SDS011;19030;49.478;8.986;2022-10-18T08:14:50;12.55;;;6.25;;
32611;SDS011;19030;49.478;8.986;2022-10-18T08:16:50;11.88;;;6.28;;
32611;SDS011;19030;49.478;8.986;2022-10-18T08:18:51;15.30;;;6.90;;
32611;SDS011;19030;49.478;8.986;2022-10-18T08:20:52;15.38;;;6.38;;
32611;SDS011;19030;49.478;8.986;2022-10-18T08:22:53;20.15;;;6.75;;
32611;SDS011;19030;49.478;8.986;2022-10-18T08:24:53;13.85;;;5.80;;
32611;SDS011;19030;49.478;8.986;2022-10-18T08:26:54;13.27;;;6.32;;
32611;SDS011;19030;49.478;8.986;2022-10-18T08:28:54;10.95;;;6.28;;
32611;SDS011;19030;49.478;8.986;2022-10-18T08:30:55;12.07;;;5.97;;
32611;SDS011;19030;49.478;8.986;2022-10-18T08:32:55;13.32;;;6.07;;
32611;SDS011;19030;49.478;8.986;2022-10-18T08:34:56;12.30;;;5.93;;
32611;SDS011;19030;49.478;8.986;2022-10-18T08:36:57;13.10;;;5.60;;
32611;SDS011;19030;49.478;8.986;2022-10-18T08:38:57;13.57;;;6.63;;
32611;SDS011;19030;49.478;8.986;2022-10-18T08:40:59;16.75;;;6.70;;
32611;SDS011;19030;49.478;8.986;2022-10-18T08:45:55;15.98;;;6.07;;
32611;SDS011;19030;49.478;8.986;2022-10-18T08:47:56;18.90;;;6.05;;
32611;SDS011;19030;49.478;8.986;2022-10-18T08:50:00;10.55;;;5.90;;
32611;SDS011;19030;49.478;8.986;2022-10-18T08:52:03;13.90;;;6.22;;
32611;SDS011;19030;49.478;8.986;2022-10-18T08:54:14;12.30;;;5.60;;
32611;SDS011;19030;49.478;8.986;2022-10-18T08:56:22;15.35;;;5.88;;
32611;SDS011;19030;49.478;8.986;2022-10-18T08:58:24;18.00;;;5.72;;
32611;SDS011;19030;49.478;8.986;2022-10-18T09:00:30;13.02;;;6.10;;
32611;SDS011;19030;49.478;8.986;2022-10-18T09:15:54;11.60;;;5.35;;
32611;SDS011;19030;49.478;8.986;2022-10-18T09:20:20;13.48;;;5.35;;
32611;SDS011;19030;49.478;8.986;2022-10-18T09:22:25;16.17;;;5.40;;
32611;SDS011;19030;49.478;8.986;2022-10-18T09:24:39;12.63;;;6.03;;
32611;SDS011;19030;49.478;8.986;2022-10-18T09:26:45;14.70;;;5.85;;
32611;SDS011;19030;49.478;8.986;2022-10-18T09:29:06;12.70;;;5.80;;
32611;SDS011;19030;49.478;8.986;2022-10-18T09:31:30;12.75;;;5.78;;
32611;SDS011;19030;49.478;8.986;2022-10-18T09:33:55;12.27;;;5.93;;
32611;SDS011;19030;49.478;8.986;2022-10-18T09:36:02;11.25;;;6.20;;
32611;SDS011;19030;49.478;8.986;2022-10-18T09:38:25;9.02;;;6.25;;
32611;SDS011;19030;49.478;8.986;2022-10-18T09:40:31;11.25;;;6.05;;
32611;SDS011;19030;49.478;8.986;2022-10-18T09:42:36;12.13;;;5.60;;
32611;SDS011;19030;49.478;8.986;2022-10-18T09:44:40;12.27;;;6.53;;
32611;SDS011;19030;49.478;8.986;2022-10-18T09:46:51;11.57;;;7.78;;
32611;SDS011;19030;49.478;8.986;2022-10-18T09:49:02;11.98;;;7.78;;
32611;SDS011;19030;49.478;8.986;2022-10-18T09:51:13;10.75;;;8.18;;
32611;SDS011;19030;49.478;8.986;2022-10-18T09:55:35;14.55;;;9.48;;
32611;SDS011;19030;49.478;8.986;2022-10-18T09:57:44;13.73;;;8.77;;
32611;SDS011;19030;49.478;8.986;2022-10-18T09:59:52;15.38;;;7.57;;
32611;SDS011;19030;49.478;8.986;2022-10-18T10:01:53;16.98;;;9.18;;
32611;SDS011;19030;49.478;8.986;2022-10-18T10:03:53;11.45;;;9.18;;
32611;SDS011;19030;49.478;8.986;2022-10-18T10:06:15;12.55;;;8.30;;
32611;SDS011;19030;49.478;8.986;2022-10-18T10:08:34;13.30;;;7.75;;
32611;SDS011;19030;49.478;8.986;2022-10-18T10:10:37;11.15;;;7.90;;
32611;SDS011;19030;49.478;8.986;2022-10-18T10:12:40;12.52;;;7.60;;
32611;SDS011;19030;49.478;8.986;2022-10-18T10:14:42;11.32;;;8.00;;
32611;SDS011;19030;49.478;8.986;2022-10-18T10:19:04;15.32;;;7.55;;
32611;SDS011;19030;49.478;8.986;2022-10-18T10:21:06;24.00;;;7.93;;
32611;SDS011;19030;49.478;8.986;2022-10-18T10:23:19;13.77;;;7.35;;
32611;SDS011;19030;49.478;8.986;2022-10-18T10:25:36;11.38;;;7.80;;
32611;SDS011;19030;49.478;8.986;2022-10-18T10:27:38;12.63;;;7.75;;
32611;SDS011;19030;49.478;8.986;2022-10-18T10:31:47;11.88;;;7.80;;
32611;SDS011;19030;49.478;8.986;2022-10-18T10:34:08;10.07;;;7.40;;
32611;SDS011;19030;49.478;8.986;2022-10-18T10:36:20;15.25;;;8.02;;
32611;SDS011;19030;49.478;8.986;2022-10-18T10:38:21;10.15;;;7.13;;
32611;SDS011;19030;49.478;8.986;2022-10-18T10:40:24;12.27;;;7.18;;
32611;SDS011;19030;49.478;8.986;2022-10-18T10:42:29;17.55;;;7.55;;
32611;SDS011;19030;49.478;8.986;2022-10-18T10:44:31;10.80;;;8.00;;
32611;SDS011;19030;49.478;8.986;2022-10-18T10:46:34;13.68;;;8.60;;
32611;SDS011;19030;49.478;8.986;2022-10-18T10:50:58;15.35;;;8.43;;
32611;SDS011;19030;49.478;8.986;2022-10-18T10:52:59;11.23;;;6.80;;
32611;SDS011;19030;49.478;8.986;2022-10-18T10:55:00;14.93;;;8.02;;
32611;SDS011;19030;49.478;8.986;2022-10-18T10:57:06;26.10;;;10.27;;
32611;SDS011;19030;49.478;8.986;2022-10-18T10:59:17;11.73;;;8.52;;
32611;SDS011;19030;49.478;8.986;2022-10-18T11:03:20;12.98;;;7.38;;
32611;SDS011;19030;49.478;8.986;2022-10-18T11:05:24;9.15;;;6.43;;
32611;SDS011;19030;49.478;8.986;2022-10-18T11:09:50;14.35;;;9.82;;
32611;SDS011;19030;49.478;8.986;2022-10-18T11:12:00;9.20;;;8.13;;
32611;SDS011;19030;49.478;8.986;2022-10-18T11:14:16;13.90;;;8.73;;
32611;SDS011;19030;49.478;8.986;2022-10-18T11:16:28;14.25;;;8.15;;
32611;SDS011;19030;49.478;8.986;2022-10-18T11:19:09;12.25;;;8.18;;
32611;SDS011;19030;49.478;8.986;2022-10-18T11:21:18;10.57;;;8.15;;
32611;SDS011;19030;49.478;8.986;2022-10-18T11:23:26;12.55;;;8.20;;
32611;SDS011;19030;49.478;8.986;2022-10-18T11:28:09;15.50;;;8.40;;
32611;SDS011;19030;49.478;8.986;2022-10-18T11:30:53;15.75;;;8.50;;
32611;SDS011;19030;49.478;8.986;2022-10-18T11:33:16;14.15;;;9.80;;
32611;SDS011;19030;49.478;8.986;2022-10-18T11:35:44;14.32;;;9.80;;
32611;SDS011;19030;49.478;8.986;2022-10-18T11:42:46;13.45;;;10.52;;
32611;SDS011;19030;49.478;8.986;2022-10-18T11:45:01;12.32;;;10.70;;
32611;SDS011;19030;49.478;8.986;2022-10-18T11:47:24;12.30;;;10.27;;
32611;SDS011;19030;49.478;8.986;2022-10-18T11:54:01;14.13;;;11.43;;
32611;SDS011;19030;49.478;8.986;2022-10-18T11:58:37;15.60;;;13.02;;
32611;SDS011;19030;49.478;8.986;2022-10-18T12:00:52;14.90;;;12.23;;
32611;SDS011;19030;49.478;8.986;2022-10-18T12:05:55;15.60;;;12.00;;
32611;SDS011;19030;49.478;8.986;2022-10-18T12:08:00;14.10;;;9.98;;
32611;SDS011;19030;49.478;8.986;2022-10-18T12:10:03;10.95;;;9.10;;
32611;SDS011;19030;49.478;8.986;2022-10-18T12:14:23;16.80;;;11.48;;
32611;SDS011;19030;49.478;8.986;2022-10-18T12:16:26;11.93;;;10.63;;
32611;SDS011;19030;49.478;8.986;2022-10-18T12:18:29;11.95;;;9.90;;
32611;SDS011;19030;49.478;8.986;2022-10-18T12:25:08;11.90;;;9.23;;
32611;SDS011;19030;49.478;8.986;2022-10-18T12:27:13;14.27;;;8.57;;
32611;SDS011;19030;49.478;8.986;2022-10-18T12:29:17;13.60;;;9.77;;
32611;SDS011;19030;49.478;8.986;2022-10-18T12:31:53;11.15;;;9.63;;
32611;SDS011;19030;49.478;8.986;2022-10-18T12:33:55;14.75;;;10.30;;
32611;SDS011;19030;49.478;8.986;2022-10-18T12:36:01;12.70;;;10.88;;
32611;SDS011;19030;49.478;8.986;2022-10-18T12:38:22;13.07;;;9.75;;
32611;SDS011;19030;49.478;8.986;2022-10-18T12:42:32;14.50;;;10.95;;
32611;SDS011;19030;49.478;8.986;2022-10-18T12:44:40;17.45;;;10.07;;
32611;SDS011;19030;49.478;8.986;2022-10-18T12:46:51;16.02;;;10.30;;
32611;SDS011;19030;49.478;8.986;2022-10-18T12:49:03;17.75;;;10.25;;
32611;SDS011;19030;49.478;8.986;2022-10-18T12:51:17;12.75;;;10.18;;
32611;SDS011;19030;49.478;8.986;2022-10-18T12:53:25;12.30;;;9.50;;
32611;SDS011;19030;49.478;8.986;2022-10-18T12:55:29;18.00;;;9.48;;
32611;SDS011;19030;49.478;8.986;2022-10-18T12:57:59;17.48;;;10.57;;
32611;SDS011;19030;49.478;8.986;2022-10-18T13:00:00;14.13;;;11.00;;
32611;SDS011;19030;49.478;8.986;2022-10-18T13:04:05;13.32;;;8.95;;
32611;SDS011;19030;49.478;8.986;2022-10-18T13:09:17;13.45;;;8.95;;
32611;SDS011;19030;49.478;8.986;2022-10-18T13:11:26;11.20;;;9.35;;
32611;SDS011;19030;49.478;8.986;2022-10-18T13:17:38;13.25;;;8.93;;
32611;SDS011;19030;49.478;8.986;2022-10-18T13:19:58;15.80;;;9.05;;
32611;SDS011;19030;49.478;8.986;2022-10-18T13:28:57;13.40;;;8.77;;
32611;SDS011;19030;49.478;8.986;2022-10-18T13:33:45;10.45;;;8.05;;
32611;SDS011;19030;49.478;8.986;2022-10-18T13:35:52;12.30;;;7.82;;
32611;SDS011;19030;49.478;8.986;2022-10-18T13:37:58;21.92;;;8.63;;
32611;SDS011;19030;49.478;8.986;2022-10-18T13:42:35;31.98;;;8.70;;
32611;SDS011;19030;49.478;8.986;2022-10-18T13:44:36;15.60;;;8.43;;
32611;SDS011;19030;49.478;8.986;2022-10-18T13:50:40;11.73;;;8.20;;
32611;SDS011;19030;49.478;8.986;2022-10-18T13:55:17;15.77;;;8.55;;
32611;SDS011;19030;49.478;8.986;2022-10-18T14:00:04;13.70;;;7.35;;
32611;SDS011;19030;49.478;8.986;2022-10-18T14:04:42;13.38;;;7.70;;
32611;SDS011;19030;49.478;8.986;2022-10-18T14:06:58;11.43;;;7.68;;
32611;SDS011;19030;49.478;8.986;2022-10-18T14:09:13;10.32;;;6.97;;
32611;SDS011;19030;49.478;8.986;2022-10-18T14:11:29;12.55;;;7.18;;
32611;SDS011;19030;49.478;8.986;2022-10-18T14:13:53;12.77;;;7.57;;
32611;SDS011;19030;49.478;8.986;2022-10-18T14:16:22;10.00;;;7.40;;
32611;SDS011;19030;49.478;8.986;2022-10-18T14:18:36;13.63;;;7.80;;
32611;SDS011;19030;49.478;8.986;2022-10-18T14:20:51;13.48;;;7.45;;
32611;SDS011;19030;49.478;8.986;2022-10-18T14:23:05;13.53;;;6.80;;
32611;SDS011;19030;49.478;8.986;2022-10-18T14:25:26;11.18;;;7.15;;
32611;SDS011;19030;49.478;8.986;2022-10-18T14:27:29;14.57;;;8.23;;
32611;SDS011;19030;49.478;8.986;2022-10-18T14:29:33;13.15;;;7.30;;
32611;SDS011;19030;49.478;8.986;2022-10-18T14:31:34;14.65;;;7.53;;
32611;SDS011;19030;49.478;8.986;2022-10-18T14:33:38;17.20;;;7.60;;
32611;SDS011;19030;49.478;8.986;2022-10-18T14:36:01;17.35;;;9.57;;
32611;SDS011;19030;49.478;8.986;2022-10-18T14:38:13;17.25;;;8.55;;
32611;SDS011;19030;49.478;8.986;2022-10-18T14:42:32;15.93;;;8.40;;
32611;SDS011;19030;49.478;8.986;2022-10-18T14:44:33;15.80;;;9.48;;
32611;SDS011;19030;49.478;8.986;2022-10-18T14:46:39;19.52;;;12.07;;
32611;SDS011;19030;49.478;8.986;2022-10-18T14:48:54;12.55;;;9.25;;
32611;SDS011;19030;49.478;8.986;2022-10-18T14:50:57;21.92;;;7.20;;
32611;SDS011;19030;49.478;8.986;2022-10-18T14:53:03;19.38;;;8.73;;
32611;SDS011;19030;49.478;8.986;2022-10-18T14:55:05;20.65;;;7.80;;
32611;SDS011;19030;49.478;8.986;2022-10-18T14:57:28;15.70;;;7.53;;